sensor_id;sensor_type;location;lat;lon;timestamp;temperature;humidity
2212;DHT22;48849;48.758;9.158;2023-04-02T00:01:36;10.80;99.90
2212;DHT22;48849;48.758;9.158;2023-04-02T00:04:15;10.70;99.90
2212;DHT22;48849;48.758;9.158;2023-04-02T00:06:47;10.70;99.90
2212;DHT22;48849;48.758;9.158;2023-04-02T00:09:34;10.80;99.90
2212;DHT22;48849;48.758;9.158;2023-04-02T00:12:14;10.70;99.90
2212;DHT22;48849;48.758;9.158;2023-04-02T00:14:49;10.80;99.90
2212;DHT22;48849;48.758;9.158;2023-04-02T00:17:17;10.70;99.90
2212;DHT22;48849;48.758;9.158;2023-04-02T00:19:47;10.80;99.90
2212;DHT22;48849;48.758;9.158;2023-04-02T00:22:17;10.70;99.90
2212;DHT22;48849;48.758;9.158;2023-04-02T00:24:44;10.70;99.90
2212;DHT22;48849;48.758;9.158;2023-04-02T00:27:14;10.80;99.90
2212;DHT22;48849;48.758;9.158;2023-04-02T00:29:46;10.80;99.90
2212;DHT22;48849;48.758;9.158;2023-04-02T00:32:18;10.80;99.90
2212;DHT22;48849;48.758;9.158;2023-04-02T00:34:46;10.80;99.90
2212;DHT22;48849;48.758;9.158;2023-04-02T00:37:16;10.70;99.90
2212;DHT22;48849;48.758;9.158;2023-04-02T00:39:49;10.60;99.90
2212;DHT22;48849;48.758;9.158;2023-04-02T00:42:17;10.60;99.90
2212;DHT22;48849;48.758;9.158;2023-04-02T00:44:45;10.60;99.90
2212;DHT22;48849;48.758;9.158;2023-04-02T00:47:18;10.50;99.90
2212;DHT22;48849;48.758;9.158;2023-04-02T00:49:46;10.50;99.90
2212;DHT22;48849;48.758;9.158;2023-04-02T00:52:16;10.50;99.90
2212;DHT22;48849;48.758;9.158;2023-04-02T00:54:47;10.70;99.90
2212;DHT22;48849;48.758;9.158;2023-04-02T00:57:18;10.60;99.90
2212;DHT22;48849;48.758;9.158;2023-04-02T00:59:54;10.60;99.90
2212;DHT22;48849;48.758;9.158;2023-04-02T01:02:25;10.60;99.90
2212;DHT22;48849;48.758;9.158;2023-04-02T01:04:52;10.60;99.90
2212;DHT22;48849;48.758;9.158;2023-04-02T01:07:25;10.60;99.90
2212;DHT22;48849;48.758;9.158;2023-04-02T01:10:19;10.60;99.90
2212;DHT22;48849;48.758;9.158;2023-04-02T01:12:57;10.70;99.90
2212;DHT22;48849;48.758;9.158;2023-04-02T01:15:29;10.60;99.90
2212;DHT22;48849;48.758;9.158;2023-04-02T01:18:16;10.80;99.90
2212;DHT22;48849;48.758;9.158;2023-04-02T01:21:02;10.80;99.90
2212;DHT22;48849;48.758;9.158;2023-04-02T01:23:36;10.90;99.90
2212;DHT22;48849;48.758;9.158;2023-04-02T01:26:09;10.90;99.90
2212;DHT22;48849;48.758;9.158;2023-04-02T01:28:58;10.90;99.90
2212;DHT22;48849;48.758;9.158;2023-04-02T01:31:27;11.00;99.90
2212;DHT22;48849;48.758;9.158;2023-04-02T01:33:55;11.00;99.90
2212;DHT22;48849;48.758;9.158;2023-04-02T01:36:28;11.10;99.90
2212;DHT22;48849;48.758;9.158;2023-04-02T01:39:04;11.10;99.90
2212;DHT22;48849;48.758;9.158;2023-04-02T01:41:38;11.00;99.90
2212;DHT22;48849;48.758;9.158;2023-04-02T01:44:10;10.90;99.90
2212;DHT22;48849;48.758;9.158;2023-04-02T01:46:40;11.00;99.90
2212;DHT22;48849;48.758;9.158;2023-04-02T01:49:11;11.10;99.90
2212;DHT22;48849;48.758;9.158;2023-04-02T01:51:41;11.00;99.90
2212;DHT22;48849;48.758;9.158;2023-04-02T01:54:09;11.00;99.90
2212;DHT22;48849;48.758;9.158;2023-04-02T01:56:36;11.20;99.90
2212;DHT22;48849;48.758;9.158;2023-04-02T01:59:03;11.30;99.90
2212;DHT22;48849;48.758;9.158;2023-04-02T02:01:34;11.20;99.90
2212;DHT22;48849;48.758;9.158;2023-04-02T02:04:02;11.20;99.90
2212;DHT22;48849;48.758;9.158;2023-04-02T02:06:29;11.20;99.90
2212;DHT22;48849;48.758;9.158;2023-04-02T02:08:59;11.30;99.90
2212;DHT22;48849;48.758;9.158;2023-04-02T02:11:29;11.30;99.90
2212;DHT22;48849;48.758;9.158;2023-04-02T02:13:59;11.30;99.90
2212;DHT22;48849;48.758;9.158;2023-04-02T02:16:27;11.20;99.90
2212;DHT22;48849;48.758;9.158;2023-04-02T02:19:00;11.10;99.90
2212;DHT22;48849;48.758;9.158;2023-04-02T02:21:33;11.00;99.90
2212;DHT22;48849;48.758;9.158;2023-04-02T02:24:03;11.00;99.90
2212;DHT22;48849;48.758;9.158;2023-04-02T02:26:32;11.10;99.90
2212;DHT22;48849;48.758;9.158;2023-04-02T02:29:02;11.00;99.90
2212;DHT22;48849;48.758;9.158;2023-04-02T02:31:31;11.00;99.90
2212;DHT22;48849;48.758;9.158;2023-04-02T02:34:03;11.00;99.90
2212;DHT22;48849;48.758;9.158;2023-04-02T02:36:36;10.90;99.90
2212;DHT22;48849;48.758;9.158;2023-04-02T02:39:10;10.90;99.90
2212;DHT22;48849;48.758;9.158;2023-04-02T02:41:41;10.90;99.90
2212;DHT22;48849;48.758;9.158;2023-04-02T02:44:13;10.90;99.90
2212;DHT22;48849;48.758;9.158;2023-04-02T02:46:44;10.90;99.90
2212;DHT22;48849;48.758;9.158;2023-04-02T02:49:16;10.90;99.90
2212;DHT22;48849;48.758;9.158;2023-04-02T02:51:47;11.00;99.90
2212;DHT22;48849;48.758;9.158;2023-04-02T02:54:16;11.00;99.90
2212;DHT22;48849;48.758;9.158;2023-04-02T02:56:48;11.00;99.90
2212;DHT22;48849;48.758;9.158;2023-04-02T02:59:18;11.00;99.90
2212;DHT22;48849;48.758;9.158;2023-04-02T03:01:46;11.00;99.90
2212;DHT22;48849;48.758;9.158;2023-04-02T03:04:18;11.00;99.90
2212;DHT22;48849;48.758;9.158;2023-04-02T03:06:47;11.20;99.90
2212;DHT22;48849;48.758;9.158;2023-04-02T03:09:19;11.10;99.90
2212;DHT22;48849;48.758;9.158;2023-04-02T03:11:51;11.10;99.90
2212;DHT22;48849;48.758;9.158;2023-04-02T03:14:25;11.10;99.90
2212;DHT22;48849;48.758;9.158;2023-04-02T03:16:59;11.20;99.90
2212;DHT22;48849;48.758;9.158;2023-04-02T03:19:32;11.00;99.90
2212;DHT22;48849;48.758;9.158;2023-04-02T03:22:05;11.10;99.90
2212;DHT22;48849;48.758;9.158;2023-04-02T03:24:40;11.10;99.90
2212;DHT22;48849;48.758;9.158;2023-04-02T03:27:13;11.00;99.90
2212;DHT22;48849;48.758;9.158;2023-04-02T03:29:42;11.00;99.90
2212;DHT22;48849;48.758;9.158;2023-04-02T03:32:16;11.00;99.90
2212;DHT22;48849;48.758;9.158;2023-04-02T03:34:50;11.10;99.90
2212;DHT22;48849;48.758;9.158;2023-04-02T03:37:21;11.10;99.90
2212;DHT22;48849;48.758;9.158;2023-04-02T03:39:51;11.00;99.90
2212;DHT22;48849;48.758;9.158;2023-04-02T03:42:22;11.00;99.90
2212;DHT22;48849;48.758;9.158;2023-04-02T03:44:53;11.00;99.90
2212;DHT22;48849;48.758;9.158;2023-04-02T03:47:30;11.00;99.90
2212;DHT22;48849;48.758;9.158;2023-04-02T03:50:02;10.90;99.90
2212;DHT22;48849;48.758;9.158;2023-04-02T03:52:34;10.90;99.90
2212;DHT22;48849;48.758;9.158;2023-04-02T03:55:10;10.90;99.90
2212;DHT22;48849;48.758;9.158;2023-04-02T03:57:45;10.80;99.90
2212;DHT22;48849;48.758;9.158;2023-04-02T04:00:15;10.80;99.90
2212;DHT22;48849;48.758;9.158;2023-04-02T04:02:48;10.80;99.90
2212;DHT22;48849;48.758;9.158;2023-04-02T04:05:24;10.80;99.90
2212;DHT22;48849;48.758;9.158;2023-04-02T04:07:54;10.90;99.90
2212;DHT22;48849;48.758;9.158;2023-04-02T04:10:24;10.80;99.90
2212;DHT22;48849;48.758;9.158;2023-04-02T04:12:54;10.90;99.90
2212;DHT22;48849;48.758;9.158;2023-04-02T04:15:25;10.90;99.90
2212;DHT22;48849;48.758;9.158;2023-04-02T04:17:58;10.90;99.90
2212;DHT22;48849;48.758;9.158;2023-04-02T04:20:29;10.90;99.90
2212;DHT22;48849;48.758;9.158;2023-04-02T04:23:07;10.80;99.90
2212;DHT22;48849;48.758;9.158;2023-04-02T04:25:35;10.90;99.90
2212;DHT22;48849;48.758;9.158;2023-04-02T04:28:08;10.80;99.90
2212;DHT22;48849;48.758;9.158;2023-04-02T04:30:42;10.80;99.90
2212;DHT22;48849;48.758;9.158;2023-04-02T04:33:15;10.70;99.90
2212;DHT22;48849;48.758;9.158;2023-04-02T04:35:50;10.70;99.90
2212;DHT22;48849;48.758;9.158;2023-04-02T04:38:27;10.80;99.90
2212;DHT22;48849;48.758;9.158;2023-04-02T04:41:00;10.80;99.90
2212;DHT22;48849;48.758;9.158;2023-04-02T04:43:43;10.70;99.90
2212;DHT22;48849;48.758;9.158;2023-04-02T04:46:14;10.70;99.90
2212;DHT22;48849;48.758;9.158;2023-04-02T04:48:49;10.70;99.90
2212;DHT22;48849;48.758;9.158;2023-04-02T04:51:22;10.60;99.90
2212;DHT22;48849;48.758;9.158;2023-04-02T04:53:52;10.60;99.90
2212;DHT22;48849;48.758;9.158;2023-04-02T04:56:22;10.60;99.90
2212;DHT22;48849;48.758;9.158;2023-04-02T04:58:53;10.60;99.90
2212;DHT22;48849;48.758;9.158;2023-04-02T05:01:24;10.70;99.90
2212;DHT22;48849;48.758;9.158;2023-04-02T05:03:57;10.60;99.90
2212;DHT22;48849;48.758;9.158;2023-04-02T05:06:34;10.50;99.90
2212;DHT22;48849;48.758;9.158;2023-04-02T05:09:06;10.50;99.90
2212;DHT22;48849;48.758;9.158;2023-04-02T05:11:40;10.50;99.90
2212;DHT22;48849;48.758;9.158;2023-04-02T05:14:17;10.50;99.90
2212;DHT22;48849;48.758;9.158;2023-04-02T05:16:50;10.60;99.90
2212;DHT22;48849;48.758;9.158;2023-04-02T05:19:22;10.60;99.90
2212;DHT22;48849;48.758;9.158;2023-04-02T05:21:56;10.60;99.90
2212;DHT22;48849;48.758;9.158;2023-04-02T05:24:41;10.60;99.90
2212;DHT22;48849;48.758;9.158;2023-04-02T05:27:18;10.60;99.90
2212;DHT22;48849;48.758;9.158;2023-04-02T05:29:51;10.60;99.90
2212;DHT22;48849;48.758;9.158;2023-04-02T05:32:22;10.50;99.90
2212;DHT22;48849;48.758;9.158;2023-04-02T05:34:53;10.60;99.90
2212;DHT22;48849;48.758;9.158;2023-04-02T05:37:24;10.50;99.90
2212;DHT22;48849;48.758;9.158;2023-04-02T05:39:53;10.60;99.90
2212;DHT22;48849;48.758;9.158;2023-04-02T05:42:23;10.70;99.90
2212;DHT22;48849;48.758;9.158;2023-04-02T05:45:00;10.60;99.90
2212;DHT22;48849;48.758;9.158;2023-04-02T05:47:30;10.60;99.90
2212;DHT22;48849;48.758;9.158;2023-04-02T05:50:13;10.50;99.90
2212;DHT22;48849;48.758;9.158;2023-04-02T05:52:46;10.50;99.90
2212;DHT22;48849;48.758;9.158;2023-04-02T05:55:28;10.50;99.90
2212;DHT22;48849;48.758;9.158;2023-04-02T05:58:01;10.50;99.90
2212;DHT22;48849;48.758;9.158;2023-04-02T06:00:50;10.60;99.90
2212;DHT22;48849;48.758;9.158;2023-04-02T06:03:23;10.50;99.90
2212;DHT22;48849;48.758;9.158;2023-04-02T06:05:55;10.60;99.90
2212;DHT22;48849;48.758;9.158;2023-04-02T06:08:30;10.50;99.90
2212;DHT22;48849;48.758;9.158;2023-04-02T06:11:05;10.50;99.90
2212;DHT22;48849;48.758;9.158;2023-04-02T06:13:33;10.60;99.90
2212;DHT22;48849;48.758;9.158;2023-04-02T06:16:00;10.70;99.90
2212;DHT22;48849;48.758;9.158;2023-04-02T06:18:28;10.70;99.90
2212;DHT22;48849;48.758;9.158;2023-04-02T06:20:56;10.80;99.90
2212;DHT22;48849;48.758;9.158;2023-04-02T06:23:26;10.90;99.90
2212;DHT22;48849;48.758;9.158;2023-04-02T06:25:59;10.90;99.90
2212;DHT22;48849;48.758;9.158;2023-04-02T06:28:32;10.90;99.90
2212;DHT22;48849;48.758;9.158;2023-04-02T06:31:04;10.90;99.90
2212;DHT22;48849;48.758;9.158;2023-04-02T06:33:33;11.00;99.90
2212;DHT22;48849;48.758;9.158;2023-04-02T06:36:00;11.00;99.90
2212;DHT22;48849;48.758;9.158;2023-04-02T06:38:30;11.10;99.90
2212;DHT22;48849;48.758;9.158;2023-04-02T06:40:59;11.10;99.90
2212;DHT22;48849;48.758;9.158;2023-04-02T06:43:31;11.10;99.90
2212;DHT22;48849;48.758;9.158;2023-04-02T06:46:02;11.10;99.90
2212;DHT22;48849;48.758;9.158;2023-04-02T06:48:32;11.20;99.90
2212;DHT22;48849;48.758;9.158;2023-04-02T06:51:03;11.30;99.90
2212;DHT22;48849;48.758;9.158;2023-04-02T06:53:35;11.30;99.90
2212;DHT22;48849;48.758;9.158;2023-04-02T06:56:06;11.20;99.90
2212;DHT22;48849;48.758;9.158;2023-04-02T06:58:38;11.20;99.90
2212;DHT22;48849;48.758;9.158;2023-04-02T07:01:05;11.30;99.90
2212;DHT22;48849;48.758;9.158;2023-04-02T07:03:32;11.40;99.90
2212;DHT22;48849;48.758;9.158;2023-04-02T07:06:01;11.40;99.90
2212;DHT22;48849;48.758;9.158;2023-04-02T07:08:28;11.30;99.90
2212;DHT22;48849;48.758;9.158;2023-04-02T07:10:56;11.40;99.90
2212;DHT22;48849;48.758;9.158;2023-04-02T07:13:23;11.50;99.90
2212;DHT22;48849;48.758;9.158;2023-04-02T07:15:51;11.60;99.90
2212;DHT22;48849;48.758;9.158;2023-04-02T07:18:22;11.60;99.90
2212;DHT22;48849;48.758;9.158;2023-04-02T07:20:49;11.70;99.90
2212;DHT22;48849;48.758;9.158;2023-04-02T07:23:16;11.70;99.90
2212;DHT22;48849;48.758;9.158;2023-04-02T07:25:43;11.70;99.90
2212;DHT22;48849;48.758;9.158;2023-04-02T07:28:11;11.70;99.90
2212;DHT22;48849;48.758;9.158;2023-04-02T07:30:39;11.80;99.90
2212;DHT22;48849;48.758;9.158;2023-04-02T07:33:06;11.80;99.90
2212;DHT22;48849;48.758;9.158;2023-04-02T07:35:33;11.90;99.90
2212;DHT22;48849;48.758;9.158;2023-04-02T07:37:59;11.90;99.90
2212;DHT22;48849;48.758;9.158;2023-04-02T07:40:29;12.00;99.90
2212;DHT22;48849;48.758;9.158;2023-04-02T07:42:56;12.00;99.90
2212;DHT22;48849;48.758;9.158;2023-04-02T07:45:24;12.00;99.90
2212;DHT22;48849;48.758;9.158;2023-04-02T07:47:50;12.00;99.90
2212;DHT22;48849;48.758;9.158;2023-04-02T07:50:17;12.10;99.90
2212;DHT22;48849;48.758;9.158;2023-04-02T07:52:44;12.10;99.90
2212;DHT22;48849;48.758;9.158;2023-04-02T07:55:12;12.10;99.90
2212;DHT22;48849;48.758;9.158;2023-04-02T07:57:46;12.10;99.90
2212;DHT22;48849;48.758;9.158;2023-04-02T08:00:14;12.10;99.90
2212;DHT22;48849;48.758;9.158;2023-04-02T08:02:42;12.10;99.90
2212;DHT22;48849;48.758;9.158;2023-04-02T08:05:09;12.10;99.90
2212;DHT22;48849;48.758;9.158;2023-04-02T08:07:36;12.20;99.90
2212;DHT22;48849;48.758;9.158;2023-04-02T08:10:04;12.10;99.90
2212;DHT22;48849;48.758;9.158;2023-04-02T08:12:31;12.10;99.90
2212;DHT22;48849;48.758;9.158;2023-04-02T08:14:58;12.20;99.90
2212;DHT22;48849;48.758;9.158;2023-04-02T08:17:25;12.10;99.90
2212;DHT22;48849;48.758;9.158;2023-04-02T08:19:57;12.10;99.90
2212;DHT22;48849;48.758;9.158;2023-04-02T08:22:25;12.20;99.90
2212;DHT22;48849;48.758;9.158;2023-04-02T08:24:52;12.10;99.90
2212;DHT22;48849;48.758;9.158;2023-04-02T08:27:19;12.20;99.90
2212;DHT22;48849;48.758;9.158;2023-04-02T08:29:46;12.20;99.90
2212;DHT22;48849;48.758;9.158;2023-04-02T08:32:13;12.20;99.90
2212;DHT22;48849;48.758;9.158;2023-04-02T08:34:41;12.10;99.90
2212;DHT22;48849;48.758;9.158;2023-04-02T08:37:10;12.10;99.90
2212;DHT22;48849;48.758;9.158;2023-04-02T08:39:38;12.20;99.90
2212;DHT22;48849;48.758;9.158;2023-04-02T08:42:11;12.20;99.90
2212;DHT22;48849;48.758;9.158;2023-04-02T08:44:47;12.20;99.90
2212;DHT22;48849;48.758;9.158;2023-04-02T08:47:16;12.30;99.90
2212;DHT22;48849;48.758;9.158;2023-04-02T08:49:51;12.20;99.90
2212;DHT22;48849;48.758;9.158;2023-04-02T08:52:23;12.20;99.90
2212;DHT22;48849;48.758;9.158;2023-04-02T08:54:51;12.20;99.90
2212;DHT22;48849;48.758;9.158;2023-04-02T08:57:29;12.20;99.90
2212;DHT22;48849;48.758;9.158;2023-04-02T09:00:00;12.10;99.90
2212;DHT22;48849;48.758;9.158;2023-04-02T09:02:37;12.10;99.90
2212;DHT22;48849;48.758;9.158;2023-04-02T09:05:14;12.10;99.90
2212;DHT22;48849;48.758;9.158;2023-04-02T09:07:44;12.20;99.90
2212;DHT22;48849;48.758;9.158;2023-04-02T09:10:13;12.10;99.90
2212;DHT22;48849;48.758;9.158;2023-04-02T09:12:42;12.20;99.90
2212;DHT22;48849;48.758;9.158;2023-04-02T09:15:16;12.20;99.90
2212;DHT22;48849;48.758;9.158;2023-04-02T09:17:49;12.20;99.90
2212;DHT22;48849;48.758;9.158;2023-04-02T09:20:19;12.20;99.90
2212;DHT22;48849;48.758;9.158;2023-04-02T09:22:49;12.20;99.90
2212;DHT22;48849;48.758;9.158;2023-04-02T09:25:19;12.20;99.90
2212;DHT22;48849;48.758;9.158;2023-04-02T09:27:47;12.20;99.90
2212;DHT22;48849;48.758;9.158;2023-04-02T09:30:23;12.20;99.90
2212;DHT22;48849;48.758;9.158;2023-04-02T09:32:55;12.30;99.90
2212;DHT22;48849;48.758;9.158;2023-04-02T09:35:24;12.40;99.90
2212;DHT22;48849;48.758;9.158;2023-04-02T09:38:15;12.30;99.90
2212;DHT22;48849;48.758;9.158;2023-04-02T09:40:47;12.40;99.90
2212;DHT22;48849;48.758;9.158;2023-04-02T09:43:17;12.40;99.90
2212;DHT22;48849;48.758;9.158;2023-04-02T09:45:55;12.30;99.90
2212;DHT22;48849;48.758;9.158;2023-04-02T09:48:24;12.30;99.90
2212;DHT22;48849;48.758;9.158;2023-04-02T09:51:04;12.30;99.90
2212;DHT22;48849;48.758;9.158;2023-04-02T09:53:35;12.30;99.90
2212;DHT22;48849;48.758;9.158;2023-04-02T09:56:11;12.30;99.90
2212;DHT22;48849;48.758;9.158;2023-04-02T09:58:39;12.30;99.90
2212;DHT22;48849;48.758;9.158;2023-04-02T10:01:23;12.30;99.90
2212;DHT22;48849;48.758;9.158;2023-04-02T10:03:52;12.30;99.90
2212;DHT22;48849;48.758;9.158;2023-04-02T10:06:19;12.30;99.90
2212;DHT22;48849;48.758;9.158;2023-04-02T10:08:47;12.30;99.90
2212;DHT22;48849;48.758;9.158;2023-04-02T10:11:18;12.30;99.90
2212;DHT22;48849;48.758;9.158;2023-04-02T10:13:51;12.30;99.90
2212;DHT22;48849;48.758;9.158;2023-04-02T10:16:22;12.30;99.90
2212;DHT22;48849;48.758;9.158;2023-04-02T10:18:54;12.30;99.90
2212;DHT22;48849;48.758;9.158;2023-04-02T10:21:25;12.30;99.90
2212;DHT22;48849;48.758;9.158;2023-04-02T10:23:54;12.30;99.90
2212;DHT22;48849;48.758;9.158;2023-04-02T10:29:50;12.30;99.90
2212;DHT22;48849;48.758;9.158;2023-04-02T10:32:24;12.30;99.90
2212;DHT22;48849;48.758;9.158;2023-04-02T10:34:57;12.30;99.90
2212;DHT22;48849;48.758;9.158;2023-04-02T10:37:48;12.40;99.90
2212;DHT22;48849;48.758;9.158;2023-04-02T10:40:24;12.40;99.90
2212;DHT22;48849;48.758;9.158;2023-04-02T10:43:13;12.40;99.90
2212;DHT22;48849;48.758;9.158;2023-04-02T10:45:48;12.40;99.90
2212;DHT22;48849;48.758;9.158;2023-04-02T10:48:21;12.40;99.90
2212;DHT22;48849;48.758;9.158;2023-04-02T10:50:54;12.50;99.90
2212;DHT22;48849;48.758;9.158;2023-04-02T10:53:31;12.50;99.90
2212;DHT22;48849;48.758;9.158;2023-04-02T10:56:02;12.60;99.90
2212;DHT22;48849;48.758;9.158;2023-04-02T10:58:36;12.50;99.90
2212;DHT22;48849;48.758;9.158;2023-04-02T11:01:08;12.50;99.90
2212;DHT22;48849;48.758;9.158;2023-04-02T11:03:46;12.50;99.90
2212;DHT22;48849;48.758;9.158;2023-04-02T11:06:17;12.50;99.90
2212;DHT22;48849;48.758;9.158;2023-04-02T11:08:46;12.50;99.90
2212;DHT22;48849;48.758;9.158;2023-04-02T11:11:17;12.50;99.90
2212;DHT22;48849;48.758;9.158;2023-04-02T11:13:50;12.50;99.90
2212;DHT22;48849;48.758;9.158;2023-04-02T11:16:17;12.60;99.90
2212;DHT22;48849;48.758;9.158;2023-04-02T11:19:06;12.60;99.90
2212;DHT22;48849;48.758;9.158;2023-04-02T11:21:37;12.60;99.90
2212;DHT22;48849;48.758;9.158;2023-04-02T11:24:05;12.60;99.90
2212;DHT22;48849;48.758;9.158;2023-04-02T11:26:50;12.60;99.90
2212;DHT22;48849;48.758;9.158;2023-04-02T11:29:24;12.60;99.90
2212;DHT22;48849;48.758;9.158;2023-04-02T11:32:25;12.60;99.90
2212;DHT22;48849;48.758;9.158;2023-04-02T11:37:56;12.70;99.90
2212;DHT22;48849;48.758;9.158;2023-04-02T11:40:44;12.60;99.90
2212;DHT22;48849;48.758;9.158;2023-04-02T11:43:49;12.60;99.90
2212;DHT22;48849;48.758;9.158;2023-04-02T11:46:49;12.60;99.90
2212;DHT22;48849;48.758;9.158;2023-04-02T11:49:55;12.60;99.90
2212;DHT22;48849;48.758;9.158;2023-04-02T11:52:24;12.70;99.90
2212;DHT22;48849;48.758;9.158;2023-04-02T11:54:57;12.70;99.90
2212;DHT22;48849;48.758;9.158;2023-04-02T12:00:32;12.70;99.90
2212;DHT22;48849;48.758;9.158;2023-04-02T12:03:21;12.70;99.90
2212;DHT22;48849;48.758;9.158;2023-04-02T12:05:54;12.80;99.90
2212;DHT22;48849;48.758;9.158;2023-04-02T12:08:30;12.80;99.90
2212;DHT22;48849;48.758;9.158;2023-04-02T12:11:00;12.80;99.90
2212;DHT22;48849;48.758;9.158;2023-04-02T12:13:53;12.80;99.90
2212;DHT22;48849;48.758;9.158;2023-04-02T12:16:24;12.90;99.90
2212;DHT22;48849;48.758;9.158;2023-04-02T12:18:56;12.80;99.90
2212;DHT22;48849;48.758;9.158;2023-04-02T12:21:25;12.80;99.90
2212;DHT22;48849;48.758;9.158;2023-04-02T12:23:54;12.90;99.90
2212;DHT22;48849;48.758;9.158;2023-04-02T12:26:27;13.00;99.90
2212;DHT22;48849;48.758;9.158;2023-04-02T12:29:21;13.10;99.90
2212;DHT22;48849;48.758;9.158;2023-04-02T12:31:50;13.10;99.90
2212;DHT22;48849;48.758;9.158;2023-04-02T12:34:19;13.20;99.90
2212;DHT22;48849;48.758;9.158;2023-04-02T12:36:55;13.20;99.90
2212;DHT22;48849;48.758;9.158;2023-04-02T12:39:22;13.30;99.90
2212;DHT22;48849;48.758;9.158;2023-04-02T12:41:48;13.40;99.90
2212;DHT22;48849;48.758;9.158;2023-04-02T12:44:17;13.40;99.90
2212;DHT22;48849;48.758;9.158;2023-04-02T12:50:13;13.50;99.90
2212;DHT22;48849;48.758;9.158;2023-04-02T12:52:43;13.50;99.90
2212;DHT22;48849;48.758;9.158;2023-04-02T12:55:16;13.50;99.90
2212;DHT22;48849;48.758;9.158;2023-04-02T12:57:44;13.50;99.90
2212;DHT22;48849;48.758;9.158;2023-04-02T13:00:33;13.60;99.90
2212;DHT22;48849;48.758;9.158;2023-04-02T13:03:15;13.60;99.90
2212;DHT22;48849;48.758;9.158;2023-04-02T13:05:47;13.60;99.90
2212;DHT22;48849;48.758;9.158;2023-04-02T13:08:17;13.50;99.90
2212;DHT22;48849;48.758;9.158;2023-04-02T13:10:44;13.50;99.90
2212;DHT22;48849;48.758;9.158;2023-04-02T13:13:14;13.50;99.90
2212;DHT22;48849;48.758;9.158;2023-04-02T13:15:42;13.50;99.90
2212;DHT22;48849;48.758;9.158;2023-04-02T13:18:17;13.40;99.90
2212;DHT22;48849;48.758;9.158;2023-04-02T13:20:55;13.30;99.90
2212;DHT22;48849;48.758;9.158;2023-04-02T13:23:30;13.30;99.90
2212;DHT22;48849;48.758;9.158;2023-04-02T13:25:58;13.30;99.90
2212;DHT22;48849;48.758;9.158;2023-04-02T13:28:26;13.40;99.90
2212;DHT22;48849;48.758;9.158;2023-04-02T13:30:52;13.40;99.90
2212;DHT22;48849;48.758;9.158;2023-04-02T13:33:19;13.40;99.90
2212;DHT22;48849;48.758;9.158;2023-04-02T13:35:46;13.40;99.90
2212;DHT22;48849;48.758;9.158;2023-04-02T13:38:14;13.30;99.90
2212;DHT22;48849;48.758;9.158;2023-04-02T13:40:41;13.30;99.90
2212;DHT22;48849;48.758;9.158;2023-04-02T13:43:14;13.30;99.90
2212;DHT22;48849;48.758;9.158;2023-04-02T13:45:44;13.10;99.90
2212;DHT22;48849;48.758;9.158;2023-04-02T13:48:13;13.00;99.90
2212;DHT22;48849;48.758;9.158;2023-04-02T13:50:42;13.00;99.90
2212;DHT22;48849;48.758;9.158;2023-04-02T13:53:17;13.00;99.90
2212;DHT22;48849;48.758;9.158;2023-04-02T13:55:48;13.00;99.90
2212;DHT22;48849;48.758;9.158;2023-04-02T13:58:16;13.00;99.90
2212;DHT22;48849;48.758;9.158;2023-04-02T14:00:44;12.80;99.90
2212;DHT22;48849;48.758;9.158;2023-04-02T14:03:13;12.80;99.90
2212;DHT22;48849;48.758;9.158;2023-04-02T14:05:45;12.80;99.90
2212;DHT22;48849;48.758;9.158;2023-04-02T14:08:22;12.70;99.90
2212;DHT22;48849;48.758;9.158;2023-04-02T14:11:01;12.60;99.90
2212;DHT22;48849;48.758;9.158;2023-04-02T14:13:55;12.60;99.90
2212;DHT22;48849;48.758;9.158;2023-04-02T14:16:46;12.50;99.90
2212;DHT22;48849;48.758;9.158;2023-04-02T14:19:25;12.60;99.90
2212;DHT22;48849;48.758;9.158;2023-04-02T14:22:03;12.50;99.90
2212;DHT22;48849;48.758;9.158;2023-04-02T14:24:35;12.50;99.90
2212;DHT22;48849;48.758;9.158;2023-04-02T14:27:09;12.50;99.90
2212;DHT22;48849;48.758;9.158;2023-04-02T14:29:42;12.50;99.90
2212;DHT22;48849;48.758;9.158;2023-04-02T14:32:15;12.60;99.90
2212;DHT22;48849;48.758;9.158;2023-04-02T14:34:50;12.50;99.90
2212;DHT22;48849;48.758;9.158;2023-04-02T14:37:22;12.50;99.90
2212;DHT22;48849;48.758;9.158;2023-04-02T14:40:01;12.50;99.90
2212;DHT22;48849;48.758;9.158;2023-04-02T14:42:32;12.40;99.90
2212;DHT22;48849;48.758;9.158;2023-04-02T14:45:04;12.30;99.90
2212;DHT22;48849;48.758;9.158;2023-04-02T14:47:35;12.40;99.90
2212;DHT22;48849;48.758;9.158;2023-04-02T14:50:09;12.40;99.90
2212;DHT22;48849;48.758;9.158;2023-04-02T14:52:38;12.50;99.90
2212;DHT22;48849;48.758;9.158;2023-04-02T14:55:14;12.50;99.90
2212;DHT22;48849;48.758;9.158;2023-04-02T14:57:46;12.50;99.90
2212;DHT22;48849;48.758;9.158;2023-04-02T15:00:26;12.30;99.90
2212;DHT22;48849;48.758;9.158;2023-04-02T15:02:57;12.30;99.90
2212;DHT22;48849;48.758;9.158;2023-04-02T15:05:28;12.30;99.90
2212;DHT22;48849;48.758;9.158;2023-04-02T15:08:03;12.30;99.90
2212;DHT22;48849;48.758;9.158;2023-04-02T15:10:35;12.30;99.90
2212;DHT22;48849;48.758;9.158;2023-04-02T15:13:11;12.30;99.90
2212;DHT22;48849;48.758;9.158;2023-04-02T15:15:43;12.40;99.90
2212;DHT22;48849;48.758;9.158;2023-04-02T15:18:13;12.40;99.90
2212;DHT22;48849;48.758;9.158;2023-04-02T15:20:48;12.30;99.90
2212;DHT22;48849;48.758;9.158;2023-04-02T15:23:26;12.20;99.90
2212;DHT22;48849;48.758;9.158;2023-04-02T15:26:03;12.20;99.90
2212;DHT22;48849;48.758;9.158;2023-04-02T15:28:36;12.10;99.90
2212;DHT22;48849;48.758;9.158;2023-04-02T15:31:05;12.00;99.90
2212;DHT22;48849;48.758;9.158;2023-04-02T15:33:41;12.10;99.90
2212;DHT22;48849;48.758;9.158;2023-04-02T15:36:19;12.20;99.90
2212;DHT22;48849;48.758;9.158;2023-04-02T15:38:57;12.10;99.90
2212;DHT22;48849;48.758;9.158;2023-04-02T15:41:31;11.90;99.90
2212;DHT22;48849;48.758;9.158;2023-04-02T15:44:07;11.80;99.90
2212;DHT22;48849;48.758;9.158;2023-04-02T15:46:40;11.80;99.90
2212;DHT22;48849;48.758;9.158;2023-04-02T15:49:29;11.80;99.90
2212;DHT22;48849;48.758;9.158;2023-04-02T15:52:05;11.80;99.90
2212;DHT22;48849;48.758;9.158;2023-04-02T15:54:48;11.70;99.90
2212;DHT22;48849;48.758;9.158;2023-04-02T15:57:23;11.70;99.90
2212;DHT22;48849;48.758;9.158;2023-04-02T16:00:02;11.70;99.90
2212;DHT22;48849;48.758;9.158;2023-04-02T16:02:45;11.60;99.90
2212;DHT22;48849;48.758;9.158;2023-04-02T16:05:18;11.60;99.90
2212;DHT22;48849;48.758;9.158;2023-04-02T16:08:03;11.70;99.90
2212;DHT22;48849;48.758;9.158;2023-04-02T16:10:38;11.50;99.90
2212;DHT22;48849;48.758;9.158;2023-04-02T16:13:14;11.60;99.90
2212;DHT22;48849;48.758;9.158;2023-04-02T16:15:45;11.50;99.90
2212;DHT22;48849;48.758;9.158;2023-04-02T16:18:26;11.50;99.90
2212;DHT22;48849;48.758;9.158;2023-04-02T16:20:54;11.50;99.90
2212;DHT22;48849;48.758;9.158;2023-04-02T16:23:28;11.50;99.90
2212;DHT22;48849;48.758;9.158;2023-04-02T16:26:02;11.50;99.90
2212;DHT22;48849;48.758;9.158;2023-04-02T16:28:37;11.50;99.90
2212;DHT22;48849;48.758;9.158;2023-04-02T16:31:08;11.40;99.90
2212;DHT22;48849;48.758;9.158;2023-04-02T16:33:50;11.40;99.90